Time;durP1;ratioP1;P1;durP2;ratioP2;P2;SDS_P1;SDS_P2;PMS_P1;PMS_P2;Temp;Humidity;BMP_temperature;BMP_pressure;BME280_temperature;BME280_humidity;BME280_pressure;Samples;Min_cycle;Max_cycle;Signal;HPM_P1;HPM_P2
2024/04/17 00:01:48;;;;;;;0.00;0.00;;;;;;;9.25;62.79;98811.34;5286774;26;32270;-82
2024/04/17 00:04:15;;;;;;;0.00;0.00;;;;;;;9.11;62.83;98814.72;5304929;26;34400;-81
2024/04/17 00:06:41;;;;;;;0.25;0.25;;;;;;;9.10;63.22;98806.91;5287822;26;32788;-80
2024/04/17 00:09:08;;;;;;;0.20;0.20;;;;;;;9.11;62.96;98806.81;5287286;26;32187;-81
2024/04/17 00:11:34;;;;;;;0.10;0.00;;;;;;;9.03;63.87;98801.12;5305944;26;33237;-81
2024/04/17 00:14:01;;;;;;;0.10;0.10;;;;;;;9.16;62.68;98799.53;5287410;26;33508;-80
2024/04/17 00:16:27;;;;;;;0.00;0.00;;;;;;;9.13;62.30;98796.22;5323955;26;34193;-81
2024/04/17 00:18:54;;;;;;;0.03;0.03;;;;;;;9.15;62.20;98786.44;5287515;26;33569;-80
2024/04/17 00:21:21;;;;;;;0.00;0.00;;;;;;;9.05;62.80;98793.12;5324183;26;33946;-80
2024/04/17 00:23:47;;;;;;;0.00;0.00;;;;;;;9.12;61.92;98783.97;5324038;26;33717;-81
2024/04/17 00:26:14;;;;;;;0.20;0.10;;;;;;;9.13;62.12;98786.53;5269884;26;32553;-81
2024/04/17 00:28:42;;;;;;;0.37;0.37;;;;;;;9.28;61.29;98779.56;5324519;26;33377;-82
2024/04/17 00:31:08;;;;;;;0.00;0.00;;;;;;;8.94;62.58;98768.22;5324148;26;33966;-81
2024/04/17 00:33:35;;;;;;;0.20;0.20;;;;;;;8.68;63.04;98766.09;5324197;26;33639;-81
2024/04/17 00:36:02;;;;;;;0.28;0.28;;;;;;;8.91;62.77;98763.12;5287025;26;33624;-81
2024/04/17 00:38:29;;;;;;;0.30;0.30;;;;;;;8.82;62.52;98753.06;5324208;26;34103;-81
2024/04/17 00:40:56;;;;;;;0.40;0.40;;;;;;;8.86;62.40;98745.88;5287358;26;32594;-81
2024/04/17 00:43:22;;;;;;;0.00;0.00;;;;;;;9.20;61.83;98737.00;5305869;26;34939;-82
2024/04/17 00:45:49;;;;;;;0.00;0.00;;;;;;;9.14;61.88;98725.00;5287020;26;32721;-82
2024/04/17 00:48:16;;;;;;;4.45;0.90;;;;;;;9.16;62.19;98723.16;5287822;26;31935;-82
2024/04/17 00:50:46;;;;;;;0.70;0.25;;;;;;;9.07;62.22;98720.16;5323730;26;32828;-83
2024/04/17 00:53:15;;;;;;;0.35;0.35;;;;;;;9.26;61.92;98707.69;5305763;26;33725;-82
2024/04/17 00:55:42;;;;;;;0.28;0.28;;;;;;;8.80;63.09;98710.19;5287667;26;32505;-82
2024/04/17 00:58:09;;;;;;;0.32;0.32;;;;;;;8.62;63.55;98714.66;5305216;26;33372;-82
2024/04/17 01:00:36;;;;;;;0.80;0.80;;;;;;;8.72;63.64;98715.88;5305539;26;32866;-82
2024/04/17 01:03:04;;;;;;;0.52;0.40;;;;;;;8.64;63.41;98715.44;5269089;26;34827;-82
2024/04/17 01:05:33;;;;;;;0.52;0.52;;;;;;;8.66;63.26;98712.72;5287245;26;32615;-82
2024/04/17 01:08:00;;;;;;;0.08;0.08;;;;;;;8.63;63.92;98712.87;5287188;26;31893;-82
2024/04/17 01:10:26;;;;;;;0.17;0.17;;;;;;;8.75;63.20;98701.72;5287520;26;33667;-82
2024/04/17 01:12:53;;;;;;;0.15;0.15;;;;;;;8.54;63.61;98698.41;5287497;26;33606;-82
2024/04/17 01:15:21;;;;;;;0.05;0.05;;;;;;;8.37;64.05;98696.69;5287451;26;33042;-82
2024/04/17 01:17:48;;;;;;;0.88;0.88;;;;;;;8.41;64.15;98692.97;5305672;26;32037;-82
2024/04/17 01:20:15;;;;;;;0.05;0.05;;;;;;;8.69;63.09;98673.94;5305591;26;32316;-82
2024/04/17 01:22:41;;;;;;;0.10;0.10;;;;;;;8.53;63.63;98674.84;5287089;26;33499;-82
2024/04/17 01:25:08;;;;;;;0.20;0.20;;;;;;;8.55;63.40;98686.16;5287600;26;33333;-82
2024/04/17 01:27:34;;;;;;;0.17;0.17;;;;;;;8.51;63.36;98684.59;5306089;26;33383;-82
2024/04/17 01:30:02;;;;;;;0.00;0.00;;;;;;;8.29;63.96;98690.09;5323976;26;33976;-82
2024/04/17 01:32:30;;;;;;;4.50;0.75;;;;;;;8.46;64.20;98677.81;5287974;26;33696;-80
2024/04/17 01:34:56;;;;;;;0.70;0.52;;;;;;;8.56;63.17;98675.53;5287136;26;33146;-80
2024/04/17 01:37:22;;;;;;;1.00;0.47;;;;;;;8.49;63.57;98668.03;5305467;26;33143;-80
2024/04/17 01:39:49;;;;;;;0.70;0.70;;;;;;;8.62;62.98;98663.81;5304830;26;34624;-80
2024/04/17 01:42:16;;;;;;;2.20;0.37;;;;;;;8.45;64.18;98662.06;5323746;26;32874;-80
2024/04/17 01:44:42;;;;;;;0.10;0.10;;;;;;;8.54;63.32;98652.84;5286883;26;32914;-81
2024/04/17 01:47:09;;;;;;;0.00;0.00;;;;;;;8.70;63.45;98651.09;5324340;26;33560;-81
2024/04/17 01:49:36;;;;;;;0.00;0.00;;;;;;;8.52;63.59;98657.34;5286743;26;33247;-80
2024/04/17 01:52:03;;;;;;;0.10;0.10;;;;;;;8.55;63.74;98644.03;5305584;26;34377;-80
2024/04/17 01:54:30;;;;;;;0.00;0.00;;;;;;;8.54;63.85;98647.59;5305694;26;34551;-81
2024/04/17 01:56:56;;;;;;;0.55;0.55;;;;;;;8.69;63.47;98638.88;5344172;26;33502;-81
2024/04/17 01:59:23;;;;;;;0.00;0.00;;;;;;;8.64;63.87;98646.16;5305779;26;32885;-81
2024/04/17 02:01:49;;;;;;;0.20;0.20;;;;;;;8.57;64.59;98642.16;5323912;26;34134;-81
2024/04/17 02:04:16;;;;;;;0.00;0.00;;;;;;;8.69;63.67;98645.00;5287470;26;33332;-81
2024/04/17 02:06:43;;;;;;;0.00;0.00;;;;;;;8.76;63.43;98645.50;5305172;26;32586;-81
2024/04/17 02:09:09;;;;;;;0.00;0.00;;;;;;;8.59;64.61;98651.69;5305204;26;33207;-81
2024/04/17 02:11:36;;;;;;;0.00;0.00;;;;;;;8.46;64.70;98658.53;5286785;26;33332;-81
2024/04/17 02:14:02;;;;;;;0.55;0.55;;;;;;;8.55;64.37;98657.19;5323671;26;34087;-80
2024/04/17 02:16:29;;;;;;;2.65;2.08;;;;;;;8.66;63.99;98674.09;5305158;26;34006;-80
2024/04/17 02:18:55;;;;;;;0.22;0.22;;;;;;;8.73;64.03;98664.06;5286499;26;32799;-80
2024/04/17 02:21:22;;;;;;;0.00;0.00;;;;;;;8.66;63.74;98675.87;5305308;26;33772;-80
2024/04/17 02:23:48;;;;;;;0.05;0.00;;;;;;;8.80;63.01;98667.25;5305191;26;33375;-80
2024/04/17 02:26:15;;;;;;;0.00;0.00;;;;;;;8.69;63.63;98675.72;5287085;26;33236;-80
2024/04/17 02:28:42;;;;;;;0.00;0.00;;;;;;;8.69;63.63;98670.47;5286958;26;32484;-80
2024/04/17 02:31:09;;;;;;;0.65;0.47;;;;;;;8.58;64.22;98676.28;5304899;26;33894;-80
2024/04/17 02:33:36;;;;;;;0.00;0.00;;;;;;;8.69;63.83;98670.47;5305293;26;33315;-80
2024/04/17 02:36:02;;;;;;;0.13;0.13;;;;;;;8.85;62.00;98684.47;5305067;26;34079;-80
2024/04/17 02:38:29;;;;;;;0.00;0.00;;;;;;;8.89;62.15;98686.00;5286826;26;32384;-80
2024/04/17 02:40:55;;;;;;;0.00;0.00;;;;;;;8.80;62.95;98677.78;5305597;26;34082;-80
2024/04/17 02:43:22;;;;;;;0.15;0.15;;;;;;;8.59;64.24;98685.03;5323502;26;33801;-80
2024/04/17 02:45:48;;;;;;;0.00;0.00;;;;;;;8.69;63.99;98673.09;5287014;26;33697;-81
2024/04/17 02:48:15;;;;;;;0.00;0.00;;;;;;;8.81;63.06;98669.78;5286888;26;32465;-82
2024/04/17 02:50:42;;;;;;;0.17;0.17;;;;;;;8.74;63.49;98673.69;5323553;26;34066;-81
2024/04/17 02:53:09;;;;;;;0.30;0.30;;;;;;;9.03;62.17;98671.25;5286820;26;32345;-81
2024/04/17 02:55:35;;;;;;;0.95;0.65;;;;;;;9.09;61.46;98671.75;5305113;26;34075;-81
2024/04/17 02:58:02;;;;;;;0.10;0.10;;;;;;;8.88;61.90;98670.31;5305276;26;33794;-81
2024/04/17 03:00:29;;;;;;;0.10;0.10;;;;;;;8.83;62.72;98669.69;5323727;26;34022;-81
2024/04/17 03:02:56;;;;;;;0.00;0.00;;;;;;;8.87;62.46;98669.44;5287029;26;32097;-80
2024/04/17 03:05:26;;;;;;;0.52;0.52;;;;;;;8.78;63.00;98669.94;5343535;26;32715;-81
2024/04/17 03:07:52;;;;;;;0.75;0.75;;;;;;;8.89;62.78;98662.31;5304969;26;33215;-81
2024/04/17 03:10:19;;;;;;;0.90;0.90;;;;;;;9.06;61.78;98658.75;5286950;26;33011;-82
2024/04/17 03:12:46;;;;;;;0.00;0.00;;;;;;;8.91;61.88;98649.91;5304942;26;32349;-82
2024/04/17 03:15:12;;;;;;;0.15;0.15;;;;;;;8.71;63.01;98653.66;5286555;26;32448;-82
2024/04/17 03:17:39;;;;;;;0.10;0.10;;;;;;;8.79;62.56;98636.59;5305046;26;32530;-82
2024/04/17 03:20:06;;;;;;;0.00;0.00;;;;;;;8.70;63.27;98645.84;5305104;26;34707;-82
2024/04/17 03:22:32;;;;;;;0.00;0.00;;;;;;;8.96;61.64;98642.59;5323244;26;34322;-82
2024/04/17 03:24:59;;;;;;;0.00;0.00;;;;;;;9.04;61.80;98639.56;5286629;26;32639;-81
2024/04/17 03:27:26;;;;;;;0.10;0.10;;;;;;;8.70;62.82;98635.31;5305166;26;33332;-81
2024/04/17 03:29:52;;;;;;;0.00;0.00;;;;;;;8.63;63.11;98634.78;5304646;26;33830;-82
2024/04/17 03:32:19;;;;;;;0.98;0.50;;;;;;;8.66;63.59;98639.03;5287423;26;33288;-81
2024/04/17 03:34:47;;;;;;;0.00;0.00;;;;;;;8.81;62.62;98632.94;5287520;26;33076;-83
2024/04/17 03:37:13;;;;;;;0.10;0.10;;;;;;;8.79;62.81;98634.81;5324283;26;33980;-83
2024/04/17 03:39:41;;;;;;;0.00;0.00;;;;;;;8.56;63.68;98629.94;5306060;26;33386;-83
2024/04/17 03:42:07;;;;;;;0.00;0.00;;;;;;;8.69;63.42;98633.62;5287474;26;33019;-83
2024/04/17 03:44:34;;;;;;;0.62;0.62;;;;;;;8.77;62.80;98626.12;5305853;26;32286;-83
2024/04/17 03:47:02;;;;;;;0.22;0.10;;;;;;;8.59;63.02;98632.41;5287985;26;32559;-82
2024/04/17 03:49:29;;;;;;;0.00;0.00;;;;;;;8.50;63.30;98638.16;5305997;26;32991;-81
2024/04/17 03:51:55;;;;;;;0.15;0.15;;;;;;;8.42;63.43;98649.09;5344096;26;33928;-81
2024/04/17 03:54:22;;;;;;;0.10;0.10;;;;;;;8.61;63.71;98641.06;5324239;26;33513;-81
2024/04/17 03:56:48;;;;;;;0.47;0.47;;;;;;;8.61;63.45;98641.91;5287431;26;33249;-81
2024/04/17 03:59:15;;;;;;;0.00;0.00;;;;;;;8.61;63.15;98636.66;5324149;26;34098;-82
2024/04/17 04:01:42;;;;;;;0.00;0.00;;;;;;;8.53;63.64;98648.53;5323832;26;34015;-82
2024/04/17 04:04:09;;;;;;;0.00;0.00;;;;;;;8.76;63.03;98649.91;5306056;26;33501;-82
2024/04/17 04:06:36;;;;;;;0.00;0.00;;;;;;;8.69;63.07;98652.03;5305698;26;32879;-82
2024/04/17 04:09:02;;;;;;;0.03;0.03;;;;;;;8.57;63.00;98653.53;5305718;26;34791;-81
2024/04/17 04:11:29;;;;;;;0.05;0.05;;;;;;;8.77;62.82;98652.44;5306014;26;32648;-82
2024/04/17 04:13:56;;;;;;;0.43;0.43;;;;;;;8.57;63.37;98658.81;5305484;26;33364;-81
2024/04/17 04:16:22;;;;;;;0.05;0.05;;;;;;;8.72;63.35;98654.50;5287484;26;34148;-81
2024/04/17 04:18:49;;;;;;;0.08;0.08;;;;;;;8.91;61.83;98659.59;5324292;26;32687;-81
2024/04/17 04:21:15;;;;;;;0.57;0.57;;;;;;;9.01;61.77;98663.41;5305758;26;34066;-81
2024/04/17 04:23:42;;;;;;;0.00;0.00;;;;;;;9.21;60.93;98668.44;5287187;26;32441;-81
2024/04/17 04:26:09;;;;;;;0.00;0.00;;;;;;;9.01;61.51;98670.47;5305986;26;33934;-81
2024/04/17 04:28:36;;;;;;;0.10;0.10;;;;;;;9.04;61.47;98679.06;5305347;26;33715;-81
2024/04/17 04:31:02;;;;;;;0.22;0.22;;;;;;;9.06;61.74;98679.81;5287300;26;32506;-82
2024/04/17 04:33:29;;;;;;;0.00;0.00;;;;;;;9.06;61.70;98684.22;5306646;26;33410;-81
2024/04/17 04:35:56;;;;;;;0.30;0.30;;;;;;;9.28;61.38;98683.91;5287185;26;34233;-81
2024/04/17 04:38:23;;;;;;;0.52;0.52;;;;;;;9.40;61.00;98684.06;5286715;26;32986;-83
2024/04/17 04:40:50;;;;;;;0.30;0.30;;;;;;;9.28;61.63;98674.19;5287208;26;33336;-83
2024/04/17 04:43:16;;;;;;;0.22;0.22;;;;;;;9.37;60.98;98668.41;5286906;26;33382;-83
2024/04/17 04:45:43;;;;;;;0.00;0.00;;;;;;;9.44;61.12;98668.91;5304765;26;33238;-82
2024/04/17 04:48:10;;;;;;;0.00;0.00;;;;;;;9.30;61.93;98664.41;5268444;26;33595;-82
2024/04/17 04:50:36;;;;;;;0.20;0.20;;;;;;;9.44;61.40;98671.53;5323614;26;32660;-82
2024/04/17 04:53:03;;;;;;;0.10;0.10;;;;;;;9.66;60.88;98676.44;5286380;26;31835;-82
2024/04/17 04:55:30;;;;;;;0.00;0.00;;;;;;;9.51;60.88;98677.31;5305588;26;34668;-83
2024/04/17 04:57:57;;;;;;;0.10;0.10;;;;;;;9.25;62.13;98674.37;5286614;26;33197;-83
2024/04/17 05:00:23;;;;;;;0.05;0.05;;;;;;;9.11;62.62;98680.41;5323439;26;34670;-83
2024/04/17 05:02:50;;;;;;;0.00;0.00;;;;;;;9.28;62.15;98678.62;5287216;26;32044;-82
2024/04/17 05:05:16;;;;;;;0.68;0.57;;;;;;;9.55;61.06;98684.97;5323465;26;33502;-82
2024/04/17 05:07:43;;;;;;;0.30;0.30;;;;;;;9.39;61.72;98684.13;5323369;26;33974;-82
2024/04/17 05:10:10;;;;;;;0.20;0.20;;;;;;;9.67;61.35;98691.31;5305125;26;34431;-82
2024/04/17 05:12:36;;;;;;;0.03;0.00;;;;;;;9.51;61.20;98690.50;5305050;26;33333;-82
2024/04/17 05:15:03;;;;;;;0.25;0.25;;;;;;;9.34;61.78;98688.81;5323725;26;33810;-82
2024/04/17 05:17:30;;;;;;;0.00;0.00;;;;;;;9.48;61.30;98675.69;5305085;26;34815;-83
2024/04/17 05:19:57;;;;;;;0.40;0.40;;;;;;;9.53;61.51;98680.72;5323750;26;34156;-83
2024/04/17 05:22:25;;;;;;;0.00;0.00;;;;;;;9.53;61.41;98680.72;5323298;26;33838;-87
2024/04/17 05:24:52;;;;;;;0.57;0.57;;;;;;;9.63;61.47;98671.34;5286770;26;33290;-87
2024/04/17 05:27:19;;;;;;;0.00;0.00;;;;;;;9.49;61.83;98677.41;5305181;26;32745;-87
2024/04/17 05:29:45;;;;;;;0.00;0.00;;;;;;;9.79;61.22;98673.94;5304897;26;34137;-87
2024/04/17 05:32:12;;;;;;;0.22;0.22;;;;;;;9.84;60.42;98675.37;5286598;26;33755;-87
2024/04/17 05:34:39;;;;;;;0.08;0.08;;;;;;;9.90;60.26;98671.53;5305885;26;34697;-86
2024/04/17 05:37:05;;;;;;;0.00;0.00;;;;;;;9.93;60.18;98669.56;5323737;26;34384;-87
2024/04/17 05:39:32;;;;;;;0.00;0.00;;;;;;;9.85;60.28;98678.84;5286555;26;32535;-87
2024/04/17 05:41:59;;;;;;;1.55;0.60;;;;;;;9.35;61.17;98686.09;5286565;26;31855;-85
2024/04/17 05:44:25;;;;;;;0.00;0.00;;;;;;;9.49;61.43;98687.94;5304614;26;32821;-86
2024/04/17 05:46:52;;;;;;;0.00;0.00;;;;;;;9.81;60.22;98688.72;5305179;26;34517;-87
2024/04/17 05:49:18;;;;;;;0.00;0.00;;;;;;;9.82;60.29;98687.78;5305242;26;33503;-87
2024/04/17 05:51:45;;;;;;;0.00;0.00;;;;;;;9.94;59.68;98689.72;5305326;26;33152;-87
2024/04/17 05:54:12;;;;;;;0.00;0.00;;;;;;;10.08;59.53;98691.53;5323653;26;34050;-87
2024/04/17 05:56:39;;;;;;;0.00;0.00;;;;;;;10.22;58.37;98688.09;5305608;26;33208;-87
2024/04/17 05:59:05;;;;;;;0.03;0.00;;;;;;;10.18;59.03;98683.94;5305916;26;33749;-86
2024/04/17 06:01:33;;;;;;;0.55;0.43;;;;;;;10.60;57.51;98687.56;5323947;26;33953;-87
2024/04/17 06:03:59;;;;;;;0.22;0.22;;;;;;;10.09;59.21;98687.09;5305130;26;34904;-87
2024/04/17 06:06:26;;;;;;;0.52;0.52;;;;;;;9.95;59.26;98688.75;5286393;26;33432;-87
2024/04/17 06:08:52;;;;;;;0.50;0.50;;;;;;;10.18;59.01;98683.94;5286007;26;32843;-87
2024/04/17 06:11:19;;;;;;;0.00;0.00;;;;;;;10.20;58.71;98695.22;5304701;26;32970;-87
2024/04/17 06:13:46;;;;;;;2.70;0.70;;;;;;;9.96;58.99;98698.37;5286963;26;33530;-86
2024/04/17 06:16:13;;;;;;;0.32;0.32;;;;;;;10.19;58.87;98698.81;5305182;26;33779;-84
2024/04/17 06:18:40;;;;;;;0.10;0.03;;;;;;;10.28;59.01;98708.00;5323808;26;34498;-83
2024/04/17 06:21:06;;;;;;;0.20;0.20;;;;;;;10.28;58.98;98708.84;5287196;26;33081;-85
2024/04/17 06:23:33;;;;;;;0.20;0.20;;;;;;;10.46;58.72;98707.75;5323350;26;35151;-86
2024/04/17 06:26:00;;;;;;;0.03;0.03;;;;;;;10.31;58.10;98706.03;5305084;26;33986;-81
2024/04/17 06:28:27;;;;;;;0.22;0.08;;;;;;;10.52;57.37;98701.22;5286578;26;33911;-81
2024/04/17 06:30:54;;;;;;;0.08;0.08;;;;;;;10.51;57.14;98700.38;5304598;26;31920;-81
2024/04/17 06:33:21;;;;;;;0.00;0.00;;;;;;;10.39;57.43;98697.63;5323764;26;34015;-82
2024/04/17 06:35:48;;;;;;;0.20;0.20;;;;;;;10.23;58.01;98702.97;5341693;26;34014;-81
2024/04/17 06:38:14;;;;;;;0.10;0.00;;;;;;;10.37;58.03;98700.38;5304715;26;33293;-82
2024/04/17 06:40:41;;;;;;;0.00;0.00;;;;;;;10.43;57.80;98696.50;5286916;26;32106;-81
2024/04/17 06:43:08;;;;;;;0.00;0.00;;;;;;;10.37;58.21;98699.53;5304025;26;32328;-81
2024/04/17 06:45:35;;;;;;;0.25;0.25;;;;;;;10.45;57.86;98700.78;5323156;26;33928;-81
2024/04/17 06:48:04;;;;;;;0.65;0.65;;;;;;;10.52;58.02;98695.94;5305075;26;35658;-82
2024/04/17 06:50:31;;;;;;;0.20;0.10;;;;;;;10.44;58.37;98687.66;5304582;26;34056;-81
2024/04/17 06:52:57;;;;;;;0.10;0.10;;;;;;;10.75;57.60;98686.62;5304759;26;34464;-82
2024/04/17 06:55:25;;;;;;;0.05;0.05;;;;;;;10.42;57.98;98695.66;5322876;26;34158;-81
2024/04/17 06:57:51;;;;;;;0.00;0.00;;;;;;;10.47;57.32;98701.50;5323660;26;34570;-82
2024/04/17 07:00:20;;;;;;;1.55;0.65;;;;;;;10.31;58.35;98692.84;5286770;26;32325;-81
2024/04/17 07:02:47;;;;;;;0.65;0.65;;;;;;;10.68;57.23;98687.94;5286285;26;33965;-81
2024/04/17 07:05:13;;;;;;;0.00;0.00;;;;;;;10.59;57.75;98683.25;5305124;26;34736;-81
2024/04/17 07:07:40;;;;;;;0.10;0.10;;;;;;;10.64;56.90;98681.16;5344305;26;33820;-81
2024/04/17 07:10:06;;;;;;;0.35;0.35;;;;;;;10.52;58.69;98670.41;5324106;26;33521;-81
2024/04/17 07:12:33;;;;;;;0.10;0.10;;;;;;;10.74;57.11;98669.09;5286969;26;33677;-81
2024/04/17 07:14:59;;;;;;;0.10;0.10;;;;;;;11.10;56.74;98659.78;5323931;26;34588;-82
2024/04/17 07:17:26;;;;;;;0.10;0.10;;;;;;;11.15;57.13;98668.25;5287114;26;32481;-81
2024/04/17 07:19:53;;;;;;;0.32;0.32;;;;;;;10.87;56.96;98662.09;5344329;26;33313;-81
2024/04/17 07:22:19;;;;;;;0.00;0.00;;;;;;;10.62;58.35;98664.56;5305790;26;34569;-81
2024/04/17 07:24:46;;;;;;;0.15;0.15;;;;;;;11.35;56.96;98659.91;5305223;26;34116;-81
2024/04/17 07:27:12;;;;;;;0.10;0.10;;;;;;;11.04;57.70;98658.38;5323104;26;33819;-81
2024/04/17 07:29:39;;;;;;;0.00;0.00;;;;;;;11.36;56.73;98672.16;5323901;26;33360;-81
2024/04/17 07:32:06;;;;;;;0.00;0.00;;;;;;;11.62;55.82;98661.69;5287246;26;32302;-81
2024/04/17 07:34:32;;;;;;;0.60;0.60;;;;;;;11.67;55.99;98659.56;5305669;26;34699;-81
2024/04/17 07:36:59;;;;;;;0.00;0.00;;;;;;;11.47;56.27;98663.53;5323956;26;33108;-82
2024/04/17 07:39:25;;;;;;;0.50;0.50;;;;;;;11.57;56.75;98658.50;5305548;26;32592;-81
2024/04/17 07:41:52;;;;;;;0.03;0.03;;;;;;;11.49;56.39;98651.94;5287225;26;32048;-81
2024/04/17 07:44:19;;;;;;;0.20;0.20;;;;;;;11.11;57.85;98648.25;5305015;26;34045;-81
2024/04/17 07:46:47;;;;;;;1.00;0.73;;;;;;;11.35;56.61;98641.41;5287329;26;33094;-81
2024/04/17 07:49:15;;;;;;;0.20;0.20;;;;;;;11.68;55.67;98640.09;5305767;26;33275;-81
2024/04/17 07:51:42;;;;;;;0.05;0.05;;;;;;;11.49;55.36;98645.78;5286748;26;33151;-81
2024/04/17 07:54:09;;;;;;;0.00;0.00;;;;;;;11.82;55.20;98645.37;5286337;26;34138;-81
2024/04/17 07:56:35;;;;;;;0.00;0.00;;;;;;;12.41;53.19;98640.44;5305391;26;33935;-81
2024/04/17 07:59:02;;;;;;;0.30;0.30;;;;;;;12.35;54.47;98642.66;5323894;26;33795;-81
2024/04/17 08:01:29;;;;;;;0.10;0.10;;;;;;;12.00;53.58;98638.81;5324189;26;33772;-85
2024/04/17 08:03:56;;;;;;;0.00;0.00;;;;;;;12.10;54.16;98635.56;5305983;26;32383;-85
2024/04/17 08:06:23;;;;;;;0.10;0.10;;;;;;;12.17;54.14;98631.56;5305587;26;33941;-82
2024/04/17 08:08:49;;;;;;;0.43;0.40;;;;;;;12.49;54.30;98627.53;5305678;26;34163;-82
2024/04/17 08:11:19;;;;;;;0.75;0.55;;;;;;;12.92;54.39;98624.47;5287604;26;34041;-82
2024/04/17 08:13:46;;;;;;;0.00;0.00;;;;;;;13.25;52.19;98626.50;5344100;26;34707;-82
2024/04/17 08:16:12;;;;;;;0.00;0.00;;;;;;;12.69;54.54;98623.47;5324387;26;33605;-82
2024/04/17 08:18:39;;;;;;;0.13;0.13;;;;;;;13.07;52.63;98623.34;5343999;26;33578;-82
2024/04/17 08:21:05;;;;;;;0.30;0.30;;;;;;;13.42;49.93;98622.59;5305816;26;32668;-82
2024/04/17 08:23:32;;;;;;;0.00;0.00;;;;;;;13.09;50.98;98615.28;5305902;26;32328;-82
2024/04/17 08:25:59;;;;;;;0.30;0.17;;;;;;;13.81;49.73;98620.56;5324195;26;34697;-81
2024/04/17 08:28:25;;;;;;;0.00;0.00;;;;;;;13.50;50.75;98616.72;5305523;26;33378;-82
2024/04/17 08:30:52;;;;;;;0.00;0.00;;;;;;;13.67;49.16;98613.63;5305783;26;34233;-82
2024/04/17 08:33:20;;;;;;;0.20;0.20;;;;;;;13.31;50.87;98619.91;5343582;26;34823;-82
2024/04/17 08:35:46;;;;;;;0.00;0.00;;;;;;;13.30;49.81;98616.41;5305849;26;32631;-82
2024/04/17 08:38:13;;;;;;;0.00;0.00;;;;;;;13.74;49.22;98611.38;5306305;26;34275;-82
2024/04/17 08:40:40;;;;;;;0.20;0.20;;;;;;;13.95;49.25;98606.25;5324383;26;34419;-82
2024/04/17 08:43:06;;;;;;;0.10;0.10;;;;;;;14.35;48.60;98607.53;5305922;26;35070;-81
2024/04/17 08:45:33;;;;;;;0.00;0.00;;;;;;;14.03;48.17;98606.53;5304853;26;33900;-82
2024/04/17 08:48:01;;;;;;;0.00;0.00;;;;;;;14.22;47.45;98605.94;5324117;26;33673;-82
2024/04/17 08:50:31;;;;;;;0.00;0.00;;;;;;;14.09;48.28;98606.87;5305442;26;34263;-82
2024/04/17 08:52:59;;;;;;;0.00;0.00;;;;;;;14.23;48.09;98610.28;5306176;26;33232;-82
2024/04/17 08:55:27;;;;;;;1.02;0.93;;;;;;;14.25;47.30;98608.38;5305552;26;33594;-82
2024/04/17 08:57:54;;;;;;;0.00;0.00;;;;;;;14.21;46.81;98596.28;5324216;26;33436;-83
2024/04/17 09:00:24;;;;;;;0.00;0.00;;;;;;;13.85;49.26;98600.81;5305171;26;35280;-82
2024/04/17 09:02:56;;;;;;;0.10;0.10;;;;;;;13.79;49.94;98580.06;5305857;26;33122;-82
2024/04/17 09:05:27;;;;;;;0.93;0.93;;;;;;;14.73;47.41;98578.94;5287637;26;34052;-82
2024/04/17 09:07:54;;;;;;;0.10;0.10;;;;;;;14.85;47.37;98577.94;5304501;26;34395;-82
2024/04/17 09:10:20;;;;;;;0.15;0.13;;;;;;;14.62;48.46;98579.78;5305968;26;33914;-82
2024/04/17 09:12:47;;;;;;;0.00;0.00;;;;;;;14.46;48.74;98582.78;5305174;26;32759;-83
2024/04/17 09:15:15;;;;;;;0.20;0.10;;;;;;;14.16;47.49;98585.19;5305945;26;34180;-83
2024/04/17 09:17:42;;;;;;;0.00;0.00;;;;;;;14.06;48.39;98575.28;5286525;26;31855;-82
2024/04/17 09:20:12;;;;;;;0.00;0.00;;;;;;;14.67;47.13;98569.66;5305567;26;32591;-82
2024/04/17 09:22:39;;;;;;;2.40;0.17;;;;;;;14.52;48.16;98582.31;5287623;26;32640;-82
2024/04/17 09:25:13;;;;;;;0.35;0.35;;;;;;;14.91;46.63;98580.12;5323747;26;32781;-82
2024/04/17 09:27:40;;;;;;;0.20;0.20;;;;;;;15.03;44.53;98579.09;5323927;26;34340;-82
2024/04/17 09:30:07;;;;;;;0.30;0.30;;;;;;;14.85;46.07;98589.41;5305880;26;34075;-82
2024/04/17 09:32:33;;;;;;;0.10;0.10;;;;;;;15.02;44.56;98573.91;5323480;26;34451;-83
2024/04/17 09:35:00;;;;;;;0.00;0.00;;;;;;;14.70;46.41;98573.84;5305446;26;33494;-83
2024/04/17 09:37:27;;;;;;;0.00;0.00;;;;;;;14.54;47.85;98571.59;5286818;26;31947;-82
2024/04/17 09:40:07;;;;;;;0.00;0.00;;;;;;;14.90;43.96;98570.44;5305250;26;33789;-82
2024/04/17 09:42:35;;;;;;;0.32;0.32;;;;;;;15.09;43.69;98557.31;5305419;26;32256;-83
2024/04/17 09:45:02;;;;;;;0.00;0.00;;;;;;;15.01;44.60;98562.44;5304749;26;34657;-82
2024/04/17 09:47:31;;;;;;;0.00;0.00;;;;;;;14.95;42.90;98570.06;5323265;26;33613;-82
2024/04/17 09:50:01;;;;;;;0.03;0.03;;;;;;;15.36;41.59;98570.16;5305195;26;34071;-83
2024/04/17 09:52:28;;;;;;;0.20;0.20;;;;;;;15.88;41.65;98568.50;5324380;26;33800;-83
2024/04/17 09:55:00;;;;;;;0.00;0.00;;;;;;;15.90;41.85;98573.66;5323892;26;33853;-83
2024/04/17 09:57:29;;;;;;;0.00;0.00;;;;;;;15.66;40.63;98573.09;5324432;26;33593;-82
2024/04/17 09:59:56;;;;;;;0.00;0.00;;;;;;;15.13;43.60;98575.69;5304830;26;34713;-82
2024/04/17 10:02:24;;;;;;;2.72;0.40;;;;;;;15.41;43.50;98569.78;5304960;26;33570;-83
2024/04/17 10:04:52;;;;;;;0.00;0.00;;;;;;;15.92;41.53;98569.06;5324130;26;34579;-82
2024/04/17 10:07:19;;;;;;;0.00;0.00;;;;;;;15.75;41.00;98567.00;5304261;26;32799;-83
2024/04/17 10:09:47;;;;;;;0.05;0.05;;;;;;;15.47;41.86;98561.28;5323878;26;33836;-82
2024/04/17 10:12:14;;;;;;;0.10;0.10;;;;;;;15.17;43.76;98571.81;5305360;26;32408;-83
2024/04/17 10:14:41;;;;;;;0.00;0.00;;;;;;;15.70;41.90;98558.56;5305493;26;33789;-82
2024/04/17 10:17:09;;;;;;;0.20;0.20;;;;;;;16.02;40.66;98559.31;5323473;26;32954;-82
2024/04/17 10:19:37;;;;;;;0.00;0.00;;;;;;;15.99;39.97;98562.25;5305582;26;33675;-82
2024/04/17 10:22:06;;;;;;;0.13;0.13;;;;;;;15.84;41.26;98566.22;5305627;26;33288;-82
2024/04/17 10:24:32;;;;;;;0.08;0.08;;;;;;;15.87;42.09;98560.63;5305372;26;32787;-83
2024/04/17 10:27:04;;;;;;;0.20;0.20;;;;;;;15.09;42.07;98569.78;5323566;26;33623;-83
2024/04/17 10:29:31;;;;;;;0.28;0.10;;;;;;;15.81;41.89;98566.50;5323787;26;34726;-83
2024/04/17 10:32:01;;;;;;;0.10;0.10;;;;;;;15.99;42.21;98564.06;5305194;26;34761;-83
2024/04/17 10:34:30;;;;;;;0.10;0.10;;;;;;;16.25;41.64;98556.50;5324101;26;34069;-83
2024/04/17 10:37:01;;;;;;;0.00;0.00;;;;;;;16.20;40.34;98550.75;5304209;26;32361;-83
2024/04/17 10:39:29;;;;;;;0.10;0.10;;;;;;;15.66;42.22;98557.97;5304824;26;34442;-83
2024/04/17 10:41:59;;;;;;;0.30;0.30;;;;;;;16.25;39.98;98553.84;5304854;26;32215;-83
2024/04/17 10:44:26;;;;;;;0.00;0.00;;;;;;;16.29;39.42;98556.09;5305127;26;33477;-83
2024/04/17 10:47:02;;;;;;;0.00;0.00;;;;;;;16.54;40.55;98552.13;5304461;26;33437;-83
2024/04/17 10:49:29;;;;;;;0.10;0.10;;;;;;;16.49;39.76;98550.84;5323449;26;32747;-83
2024/04/17 10:51:56;;;;;;;2.08;0.43;;;;;;;16.97;38.65;98545.69;5304424;26;33953;-83
2024/04/17 10:54:23;;;;;;;0.20;0.20;;;;;;;16.84;38.63;98542.41;5323138;26;32912;-83
2024/04/17 10:56:50;;;;;;;0.00;0.00;;;;;;;16.98;37.23;98542.03;5304521;26;33498;-83
2024/04/17 10:59:17;;;;;;;0.10;0.10;;;;;;;16.02;39.41;98546.00;5323720;26;34580;-83
2024/04/17 11:01:44;;;;;;;0.00;0.00;;;;;;;16.58;38.87;98545.56;5323497;26;34722;-83
2024/04/17 11:04:11;;;;;;;0.10;0.10;;;;;;;17.03;38.92;98539.78;5322878;26;34245;-83
2024/04/17 11:06:38;;;;;;;0.10;0.08;;;;;;;17.49;35.52;98524.91;5287063;26;31833;-83
2024/04/17 11:09:06;;;;;;;0.10;0.10;;;;;;;16.62;36.26;98525.66;5304658;26;34064;-83
2024/04/17 11:11:32;;;;;;;0.00;0.00;;;;;;;17.04;37.76;98533.50;5323309;26;32241;-83
2024/04/17 11:13:59;;;;;;;0.57;0.32;;;;;;;17.06;36.89;98528.84;5323365;26;33985;-83
2024/04/17 11:16:26;;;;;;;0.37;0.13;;;;;;;17.53;35.52;98522.81;5323320;26;33072;-83
2024/04/17 11:18:52;;;;;;;0.00;0.00;;;;;;;17.18;37.05;98526.88;5323686;26;34572;-83
2024/04/17 11:21:22;;;;;;;0.40;0.15;;;;;;;17.14;37.01;98530.84;5287108;26;33578;-83
2024/04/17 11:23:49;;;;;;;0.43;0.20;;;;;;;17.50;37.41;98513.25;5286614;26;32793;-83
2024/04/17 11:26:15;;;;;;;0.55;0.35;;;;;;;17.62;36.93;98519.28;5286971;26;34888;-83
2024/04/17 11:28:43;;;;;;;0.00;0.00;;;;;;;17.90;37.45;98512.25;5304778;26;33009;-84
2024/04/17 11:31:11;;;;;;;0.00;0.00;;;;;;;17.90;37.75;98512.25;5305012;26;32348;-84
2024/04/17 11:33:38;;;;;;;0.15;0.15;;;;;;;17.46;38.56;98519.84;5286623;26;32117;-84
2024/04/17 11:36:08;;;;;;;1.20;0.62;;;;;;;17.40;38.35;98521.28;5304928;26;34282;-84